Aeroporto :
LOGIN :

Iscrizione | Disclaimer

   EN    FR    IT 

 










Sommario :    VFR   VFR Marginale   IFR   IFR Intensivo   IFR Molto Intensivo
Visibilità : 
Base nubi : 
>= 8 km
>= 3000ft
5 / 8 km
1000 / 3000 ft
1500m / 5 km
500 / 1000 ft
800 / 1500m
200 / 500 ft
< 800m
< 200 ft
Simboli :   Temporali  Nebbia  Neve Forte  Precipitazioni Forti  Vento > 20 kt
SIGMETs :   Varie  Temporali  Ghiacco  Turbolenza  Onda orograficha  Ceneri Vulcaniche







- Altitudine del aeroporto : 464 ft
- Codice IATA : EVX
- Carte del aeroporto


LFOE - Evreux

ULTIMO METAR :
  • 202200Z AUTO 18004KT 3400 BR OVC013 01/01 Q1005 BECMG 2000 BR BKN004

METARs OBSOLETI :
  • 202130Z AUTO 20002KT 3600 BR OVC016 01/00 Q1004 BECMG 2000 BR BKN004
  • 202100Z AUTO 21002KT 2000 BR SCT005 SCT011 OVC016 01/00 Q1004 BECMG BKN004
  • 202030Z AUTO VRB01KT 2000 BR FEW005 BKN016 BKN042 01/00 Q1004 BECMG BKN004
  • 202000Z AUTO 00000KT 2300 BR FEW004 BKN017 BKN025 01/00 Q1004 BECMG BKN003
  • 201930Z AUTO 22001KT 2500 BR BKN004 BKN020 BKN027 01/00 Q1004 NOSIG

TAF TAF LFOE
Valido dal 20 a 21 ore il 21 a 21 ore UTC


202000Z 2021/2121 13005KT 2000 BR BKN004
PROB40
TEMPO 2100/2109 0500 FZFG VV///
BECMG 2110/2112 6000 NSW BKN005
TEMPO 2112/2115 BKN008 BKN012
BECMG 2118/2120 2000 BR BKN003
TEMPO 2120/2121 0500 FZFG VV///
Nessun NOTAM noto per questo aeroporto.



MetMap, La meteo Aeronautica in un colpo d'occhio ! - Copyright ORBIFLY Dicembre 2007 - Disclaimer

ORBIFLY MET'MAP TEAM :

Programmazione e sviluppo : Alexandra Zaïnal
Concezione e sviluppo : Baudouin d'Aumeries
Co-Programmazione e sviluppo : Marc-Olivier Méhu
Supporto tecnico e logistico : Manuel Goepfert
Aiuto per la traduzione : Arnaldo La Scala

Contatto : metmap@orbifly.com




FONTI E CREDITI :

   NOAA